Terminal Aerodrome Forecast
Issued by NWS Paducah, KY

Home | Current Version | Previous Version | Text Only | Print | Product List | Glossary On
Versions: 1 2 3 4 5 6 7 8 9 10 11 12 13 14 15 16 17 18 19 20 21 22 23
000
FTUS43 KPAH 311200 AAA
TAFEVV
TAF AMD
KEVV 311246Z 3113/0112 19004KT P6SM VCSH BKN009
      TEMPO 3113/3116 5SM -SHRA BR SCT009 BKN015
     FM311600 22007KT P6SM SCT015 BKN025
     FM312300 19005KT P6SM SCT040
     FM010600 19004KT 5SM BR SCT250=

USA.gov is the U.S. government's official web portal to all federal, state and local government web resources and services.